Addy, Washington
Current Conditions -  °F | °C
As of 12:53 PM on Sunday 23 Nov 2014 (Local Time) from KDEW Reporting Station
Unknown Precip Unknown Precip  
Wind Chill: 31°   Ceiling: 1800
Heat Index: 37°   Visibility: 8mi
Dew Point: 35°   Wind: 8mph
Humidity: 93%   Direction: 220°SW
Pressure: 30.01"   Gusts: NA
Location:  48.36°N, 117.84°W
Report Text: KDEW 232053Z AUTO 22007KT 8SM UP OVC018 03/02 A3001 RMK AO2 RAE06UPB06 SLP182 P0002 60004 T00280017 58022
Loading
Personal Weather Stations






























Interactive Weather Map New forecast layout! Learn more

10-Day Weather Forecast

Advertisements
Track Severe Weather on mobile